Time;durP1;ratioP1;P1;durP2;ratioP2;P2;SDS_P1;SDS_P2;PMS_P1;PMS_P2;Temp;Humidity;BMP_temperature;BMP_pressure;BME280_temperature;BME280_humidity;BME280_pressure;Samples;Min_cycle;Max_cycle;Signal;HPM_P1;HPM_P2
2022/07/24 08:50:28;;;;;;;14.02;10.48;;;24.80;91.70;;;;;;5069500;27;20402;-69
2022/07/24 08:53:14;;;;;;;203.00;165.38;;;24.70;91.90;;;;;;5063133;28;20033;-75
2022/07/24 08:55:39;;;;;;;61.45;47.22;;;24.70;92.20;;;;;;5067880;28;20021;-73
2022/07/24 08:58:05;;;;;;;15.07;9.95;;;24.80;91.90;;;;;;5069835;28;20024;-73
2022/07/24 09:00:31;;;;;;;13.32;9.77;;;25.30;91.60;;;;;;5069404;28;20016;-71
2022/07/24 09:02:57;;;;;;;13.23;9.57;;;25.10;91.40;;;;;;5069038;28;20029;-73
2022/07/24 09:05:23;;;;;;;13.50;11.30;;;25.10;91.10;;;;;;5069738;28;20029;-71
2022/07/24 09:07:48;;;;;;;14.48;9.88;;;25.10;91.20;;;;;;5069447;28;20477;-71
2022/07/24 09:10:16;;;;;;;11.25;9.65;;;25.00;91.30;;;;;;5069558;28;20032;-71
2022/07/24 09:12:45;;;;;;;13.07;9.45;;;25.20;91.40;;;;;;5069654;28;20020;-71
2022/07/24 09:15:18;;;;;;;14.65;10.20;;;25.20;91.40;;;;;;5068983;28;20031;-72
2022/07/24 09:17:51;;;;;;;16.00;9.00;;;25.40;91.50;;;;;;5069137;28;20498;-72
2022/07/24 09:20:17;;;;;;;25.80;23.13;;;25.80;91.50;;;;;;5069431;28;20477;-72
2022/07/24 09:22:46;;;;;;;67.43;58.53;;;25.50;91.20;;;;;;5069515;28;20035;-71
2022/07/24 09:25:13;;;;;;;22.67;14.48;;;25.40;91.10;;;;;;5053769;28;20031;-71
2022/07/24 09:27:50;;;;;;;13.10;11.35;;;25.70;90.30;;;;;;5051185;28;20041;-71
2022/07/24 09:33:39;;;;;;;16.40;9.43;;;25.40;90.00;;;;;;5049278;28;20041;-72
2022/07/24 09:36:12;;;;;;;12.70;9.30;;;25.90;90.80;;;;;;5068898;28;20025;-71
2022/07/24 09:38:37;;;;;;;14.10;9.13;;;25.70;89.90;;;;;;5051270;28;20032;-71
2022/07/24 09:41:03;;;;;;;63.65;47.28;;;25.70;89.20;;;;;;5059472;28;20032;-72
2022/07/24 09:43:32;;;;;;;13.05;10.27;;;25.70;88.60;;;;;;5062447;28;20033;-72
2022/07/24 09:46:02;;;;;;;10.88;9.00;;;25.90;87.70;;;;;;5061770;28;20025;-72
2022/07/24 09:48:35;;;;;;;12.73;9.48;;;26.00;87.70;;;;;;5056556;28;20049;-71
2022/07/24 09:51:08;;;;;;;12.73;9.98;;;25.90;87.30;;;;;;5064534;28;20522;-72
2022/07/24 09:53:34;;;;;;;11.07;8.65;;;25.90;88.00;;;;;;5060275;28;20124;-72
2022/07/24 09:56:04;;;;;;;10.27;8.75;;;25.60;88.90;;;;;;5047394;28;20388;-72
2022/07/24 09:58:30;;;;;;;14.90;9.70;;;25.80;89.80;;;;;;5060010;28;20036;-72
2022/07/24 10:00:57;;;;;;;10.82;8.90;;;26.20;89.60;;;;;;5051215;28;20049;-72
2022/07/24 10:03:30;;;;;;;11.63;8.77;;;26.10;88.80;;;;;;5052698;28;20087;-72
2022/07/24 10:05:59;;;;;;;9.20;8.13;;;26.10;88.20;;;;;;5045733;28;20033;-72
2022/07/24 10:08:25;;;;;;;13.70;8.10;;;25.90;87.70;;;;;;5044106;28;20029;-73
2022/07/24 10:10:51;;;;;;;8.60;7.68;;;26.20;86.40;;;;;;5037923;28;20025;-73
2022/07/24 10:13:17;;;;;;;13.32;7.68;;;26.30;85.60;;;;;;5049011;28;20048;-73
2022/07/24 10:15:51;;;;;;;11.20;8.30;;;26.30;85.30;;;;;;5061203;28;20024;-73
2022/07/24 10:18:17;;;;;;;18.58;8.93;;;25.90;84.80;;;;;;5069387;28;20033;-74
2022/07/24 10:20:44;;;;;;;11.25;7.30;;;26.20;87.20;;;;;;5074288;28;20035;-73
2022/07/24 10:23:11;;;;;;;11.40;8.75;;;26.30;87.60;;;;;;5067939;28;20033;-70
2022/07/24 10:25:52;;;;;;;12.88;7.45;;;26.40;86.70;;;;;;5022713;28;20033;-71
2022/07/24 10:28:23;;;;;;;9.65;7.78;;;26.60;84.60;;;;;;5049478;28;20025;-70
2022/07/24 10:30:48;;;;;;;19.92;17.50;;;26.70;84.60;;;;;;5033857;28;20099;-70
2022/07/24 10:33:14;;;;;;;21.45;18.45;;;27.10;83.80;;;;;;5033226;28;20056;-73
2022/07/24 10:35:39;;;;;;;13.60;11.70;;;27.30;83.50;;;;;;5033423;28;20025;-71
2022/07/24 10:38:19;;;;;;;10.18;8.82;;;26.80;82.70;;;;;;5033194;28;20028;-71
2022/07/24 10:40:48;;;;;;;8.57;7.50;;;26.80;82.90;;;;;;5033283;28;20029;-70
2022/07/24 10:43:17;;;;;;;9.13;8.05;;;27.10;81.70;;;;;;5039702;28;20020;-71
2022/07/24 10:45:53;;;;;;;14.38;7.55;;;26.90;82.60;;;;;;5069349;28;20547;-70
2022/07/24 10:48:25;;;;;;;11.70;7.25;;;26.90;81.90;;;;;;5073866;28;20105;-71
2022/07/24 10:51:29;;;;;;;14.38;7.43;;;27.30;80.30;;;;;;5074255;28;20451;-72
2022/07/24 10:53:56;;;;;;;9.73;7.45;;;27.00;80.30;;;;;;5072253;28;20016;-71
2022/07/24 10:56:38;;;;;;;24.95;19.48;;;27.70;80.00;;;;;;5073882;28;20025;-71
2022/07/24 10:59:07;;;;;;;20.15;15.43;;;27.70;83.70;;;;;;5073446;28;20025;-71
2022/07/24 11:01:42;;;;;;;14.93;11.02;;;27.10;82.30;;;;;;5073653;28;20122;-70
2022/07/24 11:04:21;;;;;;;10.30;7.82;;;27.00;82.10;;;;;;5047590;28;20037;-73
2022/07/24 11:06:48;;;;;;;8.60;6.45;;;27.30;80.30;;;;;;5034068;28;20037;-72
2022/07/24 11:09:15;;;;;;;9.27;7.68;;;27.40;79.60;;;;;;5043405;28;20029;-72
2022/07/24 11:11:55;;;;;;;11.55;7.28;;;27.00;80.90;;;;;;5053972;28;20677;-75
2022/07/24 11:14:40;;;;;;;7.95;6.50;;;27.20;80.60;;;;;;5073549;28;20020;-71
2022/07/24 11:17:40;;;;;;;10.02;6.82;;;27.30;76.80;;;;;;5073616;28;20074;-71
2022/07/24 11:20:10;;;;;;;11.90;6.70;;;27.40;79.90;;;;;;5073152;28;20028;-72
2022/07/24 11:22:53;;;;;;;15.02;10.00;;;27.60;78.00;;;;;;5073723;28;20031;-71
2022/07/24 11:25:23;;;;;;;10.98;8.32;;;28.30;92.00;;;;;;5056312;28;20500;-72
2022/07/24 11:28:07;;;;;;;10.20;8.20;;;28.00;88.70;;;;;;5053419;28;20037;-73
2022/07/24 11:30:32;;;;;;;14.25;7.60;;;28.30;79.00;;;;;;5053508;28;20380;-71
2022/07/24 11:32:59;;;;;;;9.85;7.75;;;28.20;81.70;;;;;;5053412;28;20104;-72
2022/07/24 11:35:32;;;;;;;12.43;11.18;;;28.20;77.80;;;;;;5038182;28;20041;-71
2022/07/24 11:37:59;;;;;;;8.77;6.85;;;28.30;76.20;;;;;;5049422;28;20446;-71
2022/07/24 11:40:25;;;;;;;9.13;7.78;;;28.60;74.20;;;;;;5052841;28;20025;-71
2022/07/24 11:42:58;;;;;;;20.15;18.02;;;29.30;88.10;;;;;;5036071;28;20026;-70
2022/07/24 11:45:23;;;;;;;19.15;9.38;;;29.00;91.90;;;;;;5037783;28;20071;-71
2022/07/24 11:47:49;;;;;;;71.97;52.78;;;29.10;76.70;;;;;;5061126;28;20471;-72
2022/07/24 11:50:14;;;;;;;96.53;49.75;;;29.60;72.50;;;;;;5055700;28;20029;-72
2022/07/24 11:52:40;;;;;;;112.43;50.30;;;29.10;73.30;;;;;;5056762;28;20082;-72
2022/07/24 11:55:10;;;;;;;408.52;287.65;;;30.40;74.50;;;;;;5072836;28;20538;-72
2022/07/24 11:57:38;;;;;;;306.52;258.05;;;29.50;69.30;;;;;;5067599;28;20044;-75
2022/07/24 12:00:14;;;;;;;14.90;11.65;;;30.00;66.60;;;;;;5052593;28;20031;-75
2022/07/24 12:02:50;;;;;;;10.43;7.18;;;29.90;76.00;;;;;;5053026;28;20400;-72
2022/07/24 12:05:30;;;;;;;9.48;5.97;;;29.80;66.70;;;;;;5058816;28;20196;-73
2022/07/24 12:07:56;;;;;;;66.55;59.42;;;29.60;69.10;;;;;;5071578;28;20102;-72
2022/07/24 12:10:22;;;;;;;45.33;34.75;;;30.20;67.50;;;;;;5072689;28;20254;-72
2022/07/24 12:12:53;;;;;;;16.10;8.15;;;29.80;67.50;;;;;;5072701;28;20029;-72
2022/07/24 12:15:19;;;;;;;7.38;5.22;;;29.50;67.50;;;;;;5072497;28;20031;-73
2022/07/24 12:18:01;;;;;;;8.02;5.97;;;29.60;64.20;;;;;;5071326;28;20107;-74
2022/07/24 12:20:31;;;;;;;11.95;5.47;;;29.90;64.60;;;;;;5052311;28;20136;-71
2022/07/24 12:22:57;;;;;;;58.85;50.28;;;29.30;65.40;;;;;;5056247;28;20024;-72
2022/07/24 12:25:24;;;;;;;73.65;57.70;;;29.10;65.20;;;;;;5051157;28;20040;-71
2022/07/24 12:28:39;;;;;;;16.13;10.75;;;28.80;64.60;;;;;;5045679;28;20047;-71
2022/07/24 12:31:08;;;;;;;8.32;5.15;;;28.90;62.80;;;;;;5046316;28;20036;-72
2022/07/24 12:33:34;;;;;;;6.80;5.60;;;28.80;63.30;;;;;;5064307;28;20028;-77
2022/07/24 12:36:08;;;;;;;6.72;5.00;;;29.00;63.60;;;;;;5051209;28;20502;-73
2022/07/24 12:38:55;;;;;;;13.10;5.67;;;28.60;63.90;;;;;;5065554;28;20028;-71
2022/07/24 12:41:22;;;;;;;93.90;81.80;;;28.50;63.50;;;;;;5071089;28;20278;-73
2022/07/24 12:43:51;;;;;;;17.75;13.55;;;28.40;64.30;;;;;;5060559;28;20041;-74
2022/07/24 12:46:20;;;;;;;12.07;9.32;;;28.10;63.10;;;;;;5052007;28;20591;-74
2022/07/24 12:49:01;;;;;;;7.57;6.32;;;28.20;63.80;;;;;;5054655;28;20122;-77
2022/07/24 12:51:44;;;;;;;7.10;4.93;;;27.80;62.70;;;;;;5072457;28;20048;-74
2022/07/24 12:54:10;;;;;;;9.38;5.32;;;28.00;63.30;;;;;;5065886;28;20021;-71
2022/07/24 12:56:35;;;;;;;10.65;5.05;;;28.40;61.80;;;;;;5032955;28;20029;-71
2022/07/24 12:59:01;;;;;;;6.85;5.40;;;28.40;61.40;;;;;;5052053;28;20056;-71
2022/07/24 13:01:29;;;;;;;5.72;5.13;;;28.70;63.40;;;;;;5048944;28;20127;-70
2022/07/24 13:03:57;;;;;;;8.38;5.07;;;28.60;61.80;;;;;;5059725;28;20024;-70
2022/07/24 13:09:45;;;;;;;6.63;5.22;;;28.30;61.20;;;;;;5036275;28;20044;-70
2022/07/24 13:12:10;;;;;;;7.05;5.32;;;28.30;61.70;;;;;;5040453;28;20021;-69
2022/07/24 13:14:36;;;;;;;6.43;4.95;;;28.10;62.60;;;;;;5054969;28;20033;-70
2022/07/24 13:17:10;;;;;;;9.10;5.35;;;28.10;62.50;;;;;;5032041;28;20033;-70
2022/07/24 13:19:37;;;;;;;8.80;5.32;;;28.00;62.50;;;;;;5036500;28;20116;-70
2022/07/24 13:22:02;;;;;;;6.00;5.03;;;28.20;62.90;;;;;;5033328;28;21371;-70
2022/07/24 13:24:29;;;;;;;6.72;5.22;;;27.90;63.20;;;;;;5040827;28;20040;-69
2022/07/24 13:26:54;;;;;;;6.47;5.15;;;28.40;63.70;;;;;;5051462;28;20028;-70
2022/07/24 13:29:20;;;;;;;7.18;4.93;;;27.70;62.80;;;;;;5050385;28;20122;-71
2022/07/24 13:31:46;;;;;;;5.88;5.13;;;27.90;63.90;;;;;;5061127;28;20025;-71
2022/07/24 13:34:11;;;;;;;8.77;5.70;;;28.60;64.40;;;;;;5071857;28;20021;-71
2022/07/24 13:36:37;;;;;;;8.80;5.72;;;28.30;65.20;;;;;;5052169;28;20112;-70
2022/07/24 13:39:06;;;;;;;7.47;5.65;;;28.30;64.10;;;;;;5040130;28;20400;-69
2022/07/24 13:41:32;;;;;;;7.65;4.88;;;29.20;62.90;;;;;;5051541;28;20029;-69
2022/07/24 13:43:57;;;;;;;6.43;5.68;;;29.10;63.10;;;;;;5041859;28;20035;-69
2022/07/24 13:46:23;;;;;;;6.97;5.72;;;29.00;63.40;;;;;;5041517;28;20029;-69
2022/07/24 13:48:48;;;;;;;5.65;4.88;;;28.30;63.30;;;;;;5053077;28;20037;-69
2022/07/24 13:51:14;;;;;;;6.22;5.47;;;28.20;62.80;;;;;;5040198;28;20025;-70
2022/07/24 13:53:39;;;;;;;6.95;5.78;;;28.10;62.70;;;;;;5040029;28;20033;-71
2022/07/24 13:56:06;;;;;;;6.45;5.47;;;28.00;63.20;;;;;;5041084;28;20025;-71
2022/07/24 13:58:33;;;;;;;6.68;5.95;;;27.90;64.10;;;;;;5043910;28;20033;-76
2022/07/24 14:00:59;;;;;;;8.32;5.90;;;28.30;65.00;;;;;;5048995;28;20025;-68
2022/07/24 14:03:24;;;;;;;6.90;6.15;;;28.10;66.10;;;;;;5035495;28;20021;-70
2022/07/24 14:05:50;;;;;;;9.63;6.22;;;27.70;64.60;;;;;;5042005;28;20456;-67
2022/07/24 14:08:15;;;;;;;7.93;5.80;;;28.00;65.40;;;;;;5051140;28;20056;-67
2022/07/24 14:10:41;;;;;;;8.25;5.88;;;28.50;63.20;;;;;;5054399;28;20024;-68
2022/07/24 14:13:06;;;;;;;7.18;6.25;;;28.20;64.00;;;;;;5054578;28;20025;-68
2022/07/24 14:15:32;;;;;;;7.03;5.80;;;28.20;63.40;;;;;;5062260;28;20024;-68
2022/07/24 14:17:58;;;;;;;7.88;5.95;;;27.90;64.60;;;;;;5071707;28;20059;-67
2022/07/24 14:20:23;;;;;;;8.63;5.90;;;27.60;64.60;;;;;;5072974;28;20036;-67
2022/07/24 14:26:18;;;;;;;6.63;5.97;;;27.70;66.20;;;;;;5035150;28;20028;-68
2022/07/24 14:28:43;;;;;;;7.13;5.68;;;28.50;66.20;;;;;;5039294;28;20033;-69
2022/07/24 14:31:09;;;;;;;9.25;6.20;;;28.30;66.30;;;;;;5047672;28;20063;-69
2022/07/24 14:33:35;;;;;;;8.35;6.38;;;28.40;67.50;;;;;;5035062;28;20095;-68
2022/07/24 14:36:00;;;;;;;9.43;6.35;;;28.80;67.10;;;;;;5037397;28;20381;-71
2022/07/24 14:38:26;;;;;;;9.50;6.63;;;28.30;67.10;;;;;;5041430;28;20033;-76
2022/07/24 14:40:52;;;;;;;68.03;54.78;;;28.10;66.90;;;;;;5045395;28;20488;-80
2022/07/24 14:43:17;;;;;;;20.00;17.83;;;28.10;66.70;;;;;;5044974;28;20017;-80
2022/07/24 14:45:43;;;;;;;53.38;42.70;;;28.10;66.00;;;;;;5047542;28;20029;-80
2022/07/24 14:48:08;;;;;;;8.65;7.05;;;28.50;67.10;;;;;;5029482;28;20049;-83
2022/07/24 14:50:37;;;;;;;9.77;7.03;;;28.00;65.40;;;;;;5038512;28;20021;-79
2022/07/24 14:53:02;;;;;;;8.55;7.20;;;28.80;67.00;;;;;;5036251;28;20090;-78
2022/07/24 14:55:28;;;;;;;8.45;6.25;;;28.90;66.30;;;;;;5034409;28;20025;-78
2022/07/24 14:57:53;;;;;;;7.80;7.00;;;28.90;65.90;;;;;;5052747;28;20025;-77
2022/07/24 15:00:19;;;;;;;8.25;6.78;;;28.40;65.30;;;;;;5047458;28;20024;-77
2022/07/24 15:02:44;;;;;;;8.65;6.90;;;28.20;65.30;;;;;;5034059;28;20029;-77
2022/07/24 15:05:10;;;;;;;7.97;6.75;;;27.90;66.00;;;;;;5034016;28;20022;-77
2022/07/24 15:07:36;;;;;;;8.52;6.60;;;27.70;66.60;;;;;;5034095;28;20041;-76
2022/07/24 15:10:01;;;;;;;7.70;6.90;;;28.10;66.20;;;;;;5073362;28;20036;-77
2022/07/24 15:12:27;;;;;;;68.75;53.17;;;27.90;66.90;;;;;;5067081;28;20037;-77
2022/07/24 15:14:52;;;;;;;13.57;8.45;;;28.00;69.20;;;;;;5069161;28;20021;-75
2022/07/24 15:17:18;;;;;;;11.38;7.38;;;28.00;66.70;;;;;;5052785;28;20025;-69
2022/07/24 15:19:43;;;;;;;9.48;7.07;;;28.20;66.40;;;;;;5052626;28;20461;-67
2022/07/24 15:22:18;;;;;;;9.38;6.82;;;28.40;66.40;;;;;;5054298;28;20028;-68
2022/07/24 15:24:44;;;;;;;8.95;6.72;;;28.80;67.10;;;;;;5049100;28;20449;-67
2022/07/24 15:27:09;;;;;;;8.18;6.15;;;29.00;64.90;;;;;;5032921;28;20053;-67
2022/07/24 15:29:35;;;;;;;9.05;6.43;;;28.50;65.30;;;;;;5039975;28;20104;-68
2022/07/24 15:32:00;;;;;;;7.28;6.57;;;28.30;65.60;;;;;;5052985;28;20100;-67
2022/07/24 15:34:26;;;;;;;8.55;6.70;;;28.20;65.40;;;;;;5051695;28;20108;-67
2022/07/24 15:36:52;;;;;;;12.18;6.50;;;28.60;65.60;;;;;;5053093;28;20049;-67
2022/07/24 15:39:17;;;;;;;6.82;5.88;;;28.40;65.00;;;;;;5050298;28;20066;-67
2022/07/24 15:41:43;;;;;;;6.97;6.28;;;28.60;65.70;;;;;;5051196;28;20025;-68
2022/07/24 15:44:08;;;;;;;9.63;6.72;;;28.60;64.50;;;;;;5051198;28;20480;-67
2022/07/24 15:46:34;;;;;;;10.68;6.22;;;28.00;65.50;;;;;;5045850;28;20393;-75
2022/07/24 15:49:04;;;;;;;8.05;6.32;;;28.40;66.00;;;;;;5038017;28;20037;-83
2022/07/24 15:51:29;;;;;;;6.85;5.50;;;28.50;64.80;;;;;;5060013;28;20044;-73
2022/07/24 15:53:55;;;;;;;6.88;6.18;;;28.40;65.10;;;;;;5050310;28;20028;-71
2022/07/24 15:56:20;;;;;;;7.15;6.20;;;28.30;64.80;;;;;;5045572;28;20402;-80
2022/07/24 15:58:46;;;;;;;6.88;6.18;;;28.30;65.10;;;;;;5014053;28;20087;-78
2022/07/24 16:01:11;;;;;;;8.48;5.78;;;28.30;65.30;;;;;;5038339;28;20100;-78
2022/07/24 16:03:37;;;;;;;9.52;6.72;;;28.10;66.50;;;;;;5041103;28;20158;-69
2022/07/24 16:06:05;;;;;;;6.90;6.30;;;28.10;66.20;;;;;;5042812;28;20118;-76
2022/07/24 16:08:58;;;;;;;9.30;6.43;;;28.00;66.70;;;;;;5044206;28;20469;-76
2022/07/24 16:11:23;;;;;;;7.80;6.15;;;28.30;66.00;;;;;;5029834;28;20046;-71
2022/07/24 16:13:49;;;;;;;6.72;6.07;;;28.80;66.70;;;;;;5034220;28;20022;-67
2022/07/24 16:16:14;;;;;;;10.98;5.78;;;28.10;66.00;;;;;;5031321;28;20018;-67
2022/07/24 16:18:40;;;;;;;26.83;22.27;;;28.60;66.30;;;;;;5031474;28;20481;-67
2022/07/24 16:21:05;;;;;;;21.73;18.20;;;27.90;65.80;;;;;;5031585;28;20022;-67
2022/07/24 16:23:32;;;;;;;119.57;97.03;;;28.10;65.00;;;;;;5031318;28;20040;-68
2022/07/24 16:25:58;;;;;;;40.28;30.88;;;28.10;64.80;;;;;;5031580;28;20029;-69
2022/07/24 16:28:24;;;;;;;18.73;13.50;;;27.90;68.20;;;;;;5031195;28;20033;-69
2022/07/24 16:30:49;;;;;;;15.05;11.40;;;28.10;66.10;;;;;;5032684;28;20025;-69
2022/07/24 16:33:15;;;;;;;68.85;24.27;;;28.10;66.60;;;;;;5031319;28;20481;-71
2022/07/24 16:35:40;;;;;;;274.13;113.95;;;28.10;66.60;;;;;;5031280;28;20022;-66
2022/07/24 16:38:06;;;;;;;586.45;280.73;;;28.90;78.90;;;;;;5032557;28;20033;-67
2022/07/24 16:40:31;;;;;;;325.00;157.73;;;29.30;91.00;;;;;;5031197;28;20389;-67
2022/07/24 16:42:57;;;;;;;36.85;27.95;;;29.30;84.10;;;;;;5032486;28;20021;-67
2022/07/24 16:45:23;;;;;;;32.80;25.00;;;29.70;68.20;;;;;;5032287;28;20473;-66
2022/07/24 16:47:48;;;;;;;20.55;14.52;;;29.00;68.00;;;;;;5032149;28;20045;-66
2022/07/24 16:50:13;;;;;;;10.90;9.07;;;29.10;67.80;;;;;;5031222;28;20544;-67
2022/07/24 16:52:39;;;;;;;13.13;9.05;;;28.80;68.70;;;;;;5032321;28;20106;-67
2022/07/24 16:55:05;;;;;;;104.35;90.50;;;29.20;68.20;;;;;;5032342;28;20108;-66
2022/07/24 16:57:30;;;;;;;55.67;45.28;;;28.50;69.40;;;;;;5032158;28;20053;-67
2022/07/24 16:59:56;;;;;;;55.15;48.90;;;28.60;69.90;;;;;;5032205;28;20056;-67
2022/07/24 17:02:21;;;;;;;18.80;15.30;;;28.90;69.10;;;;;;5030976;28;20041;-67
2022/07/24 17:04:47;;;;;;;11.38;8.30;;;28.50;67.10;;;;;;5031287;28;20457;-68
2022/07/24 17:07:13;;;;;;;112.65;94.85;;;28.70;66.90;;;;;;5031085;28;20022;-67
2022/07/24 17:09:38;;;;;;;68.30;61.05;;;28.30;68.30;;;;;;5031358;28;20045;-75
2022/07/24 17:12:09;;;;;;;24.27;19.83;;;27.90;67.50;;;;;;5041264;28;20067;-76
2022/07/24 17:14:34;;;;;;;14.02;11.18;;;28.10;65.70;;;;;;5054697;28;20021;-76
2022/07/24 17:17:00;;;;;;;7.68;6.88;;;28.00;66.10;;;;;;5043479;28;20025;-77
2022/07/24 17:19:25;;;;;;;10.70;9.55;;;28.60;65.30;;;;;;5034377;28;20040;-78
2022/07/24 17:21:59;;;;;;;7.47;6.68;;;28.00;67.50;;;;;;5036110;28;20056;-79
2022/07/24 17:24:28;;;;;;;9.45;6.90;;;27.90;64.70;;;;;;5034695;28;20033;-77
2022/07/24 17:26:54;;;;;;;9.63;6.53;;;27.80;66.00;;;;;;5019206;28;20066;-76
2022/07/24 17:29:19;;;;;;;8.68;6.40;;;27.70;65.80;;;;;;5034090;28;20108;-82
2022/07/24 17:31:45;;;;;;;120.13;106.38;;;27.70;66.60;;;;;;5046703;28;20021;-78
2022/07/24 17:34:11;;;;;;;143.35;121.57;;;27.70;67.50;;;;;;5055321;28;20036;-83
2022/07/24 17:36:36;;;;;;;61.45;53.25;;;27.80;67.80;;;;;;5054925;28;20532;-78
2022/07/24 17:39:02;;;;;;;32.03;27.20;;;28.30;66.90;;;;;;5055018;28;20489;-79
2022/07/24 17:41:28;;;;;;;21.80;16.30;;;27.80;66.80;;;;;;5053684;28;20104;-81
2022/07/24 17:43:53;;;;;;;16.90;14.50;;;27.70;66.80;;;;;;5051905;28;20025;-80
2022/07/24 17:46:19;;;;;;;14.93;11.70;;;28.10;67.30;;;;;;5036548;28;20037;-79
2022/07/24 17:48:44;;;;;;;11.05;7.55;;;27.70;67.30;;;;;;5035929;28;20033;-75
2022/07/24 17:51:10;;;;;;;9.93;7.00;;;27.60;68.10;;;;;;5036437;28;20079;-78
2022/07/24 17:53:35;;;;;;;36.35;32.83;;;27.40;68.40;;;;;;5038782;28;20093;-70
2022/07/24 17:56:01;;;;;;;18.52;15.32;;;27.40;68.30;;;;;;5036574;28;20028;-69
2022/07/24 17:58:27;;;;;;;11.45;9.75;;;27.60;69.10;;;;;;5034136;28;20060;-78
2022/07/24 18:00:52;;;;;;;7.53;6.80;;;27.40;69.00;;;;;;5038563;28;20385;-77
2022/07/24 18:03:18;;;;;;;8.93;7.00;;;27.40;68.70;;;;;;5052933;28;20099;-79
2022/07/24 18:05:43;;;;;;;7.05;6.35;;;27.70;70.00;;;;;;5056958;28;20025;-79
2022/07/24 18:08:09;;;;;;;8.23;6.40;;;27.50;69.80;;;;;;5036801;28;20029;-79
2022/07/24 18:10:34;;;;;;;11.73;7.55;;;27.10;70.40;;;;;;5023815;28;20025;-78
2022/07/24 18:13:00;;;;;;;11.23;7.00;;;27.90;70.90;;;;;;5028945;28;20025;-81
2022/07/24 18:15:26;;;;;;;9.18;6.97;;;27.10;70.10;;;;;;5040975;28;20024;-80
2022/07/24 18:17:51;;;;;;;13.68;7.38;;;27.10;71.40;;;;;;5033676;28;20033;-81
2022/07/24 18:20:17;;;;;;;9.35;6.85;;;27.20;70.50;;;;;;5033034;28;20415;-80
2022/07/24 18:22:42;;;;;;;8.30;6.65;;;27.20;70.60;;;;;;5049140;28;20079;-77
2022/07/24 18:25:09;;;;;;;7.32;5.85;;;27.20;70.50;;;;;;5045648;28;20385;-77
2022/07/24 18:27:40;;;;;;;8.63;5.90;;;27.10;71.00;;;;;;5044387;28;20033;-78
2022/07/24 18:30:13;;;;;;;7.20;6.22;;;27.00;71.10;;;;;;5043452;28;20055;-85
2022/07/24 18:32:39;;;;;;;6.88;6.13;;;27.50;72.70;;;;;;5053971;28;20469;-79
2022/07/24 18:35:05;;;;;;;9.35;7.15;;;27.50;73.70;;;;;;5049887;28;20037;-79
2022/07/24 18:37:30;;;;;;;9.35;6.55;;;27.00;73.00;;;;;;5043385;28;20036;-81
2022/07/24 18:39:56;;;;;;;72.40;60.45;;;26.90;73.50;;;;;;5040362;28;20028;-78
2022/07/24 18:42:21;;;;;;;25.08;22.20;;;27.40;73.50;;;;;;5057100;28;20032;-77
2022/07/24 18:44:47;;;;;;;15.90;13.43;;;27.20;72.20;;;;;;5059932;28;20021;-77
2022/07/24 18:47:13;;;;;;;15.07;12.48;;;27.50;72.00;;;;;;5033967;28;20022;-77
2022/07/24 18:49:39;;;;;;;11.25;9.68;;;27.80;72.20;;;;;;5043147;28;20051;-76
2022/07/24 18:52:05;;;;;;;10.32;8.88;;;26.80;72.40;;;;;;5053863;28;20020;-77
2022/07/24 18:54:30;;;;;;;10.23;7.60;;;27.40;73.30;;;;;;5060996;28;20021;-77
2022/07/24 18:56:56;;;;;;;14.30;7.40;;;27.70;73.80;;;;;;5059085;28;20045;-77
2022/07/24 18:59:21;;;;;;;13.38;8.80;;;27.30;73.90;;;;;;5053574;28;20489;-77
2022/07/24 19:01:47;;;;;;;10.40;7.75;;;26.70;74.40;;;;;;5057490;28;20029;-77
2022/07/24 19:04:15;;;;;;;8.98;7.13;;;26.90;74.90;;;;;;5055205;28;20029;-78
2022/07/24 19:06:40;;;;;;;10.07;7.55;;;26.60;75.20;;;;;;5033670;28;20555;-77
2022/07/24 19:09:06;;;;;;;9.02;6.32;;;27.20;76.90;;;;;;5058082;28;20112;-77
2022/07/24 19:11:32;;;;;;;7.78;6.60;;;26.20;77.90;;;;;;5053319;28;20128;-76
2022/07/24 19:14:00;;;;;;;19.15;11.15;;;26.50;78.50;;;;;;5049457;28;20021;-77
2022/07/24 19:16:25;;;;;;;16.65;13.52;;;26.90;79.80;;;;;;5050601;28;20013;-76
2022/07/24 19:18:51;;;;;;;20.80;12.65;;;26.40;81.00;;;;;;5053221;28;20048;-76
2022/07/24 19:21:17;;;;;;;17.90;12.70;;;26.30;83.10;;;;;;5045252;28;20037;-68
2022/07/24 19:23:42;;;;;;;19.92;13.93;;;26.20;84.10;;;;;;5039182;28;20026;-69
2022/07/24 19:26:08;;;;;;;26.70;14.73;;;26.20;83.70;;;;;;5033535;28;20021;-68
2022/07/24 19:28:33;;;;;;;24.63;14.13;;;26.70;84.70;;;;;;5047017;28;20029;-69
2022/07/24 19:30:59;;;;;;;27.00;13.20;;;26.40;84.90;;;;;;5050295;28;20028;-68
2022/07/24 19:33:24;;;;;;;22.92;13.93;;;26.10;85.30;;;;;;5040918;28;20049;-68
2022/07/24 19:35:50;;;;;;;31.67;12.77;;;26.10;86.50;;;;;;5043573;28;20104;-68
2022/07/24 19:38:15;;;;;;;29.92;13.82;;;26.30;87.10;;;;;;5032209;28;20071;-67
2022/07/24 19:40:47;;;;;;;36.13;15.55;;;26.10;88.50;;;;;;5052263;28;20021;-68
2022/07/24 19:43:13;;;;;;;30.52;14.73;;;26.10;89.50;;;;;;5052052;28;20029;-68
2022/07/24 19:45:39;;;;;;;42.53;17.27;;;26.00;90.40;;;;;;5059487;28;20032;-67
2022/07/24 19:48:08;;;;;;;49.60;19.42;;;26.50;91.40;;;;;;5072845;28;20488;-68
2022/07/24 19:50:36;;;;;;;47.97;21.13;;;26.20;91.80;;;;;;5073015;28;20047;-68
2022/07/24 19:53:05;;;;;;;52.60;21.35;;;25.90;92.30;;;;;;5059240;28;20063;-67
2022/07/24 19:55:30;;;;;;;53.83;21.80;;;25.90;92.80;;;;;;5072628;28;20435;-69
2022/07/24 19:57:56;;;;;;;53.80;20.73;;;25.90;92.90;;;;;;5071826;28;20021;-70
